Gansevoort, NY (12831)

6:19 PM EDT on October 21, 2014 (GMT -0400)
Palmerton Heights | Change Station
CLOSE
Current Station
Personal Weather Station
Location: Gansevoort, NY
Elevation: 420 ft
Nearby Weather Stations

Elev 420 ft 43.21 °N, 73.73 °W | Updated 13 minutes ago

Overcast
Overcast
50.7 °F
Feels Like 50.7 °F
N
0.0
Wind Variable Wind from West

Today
High -- | Low -- °F
--% Chance of Precip.
Yesterday
High -- | Low -- °F
Precip. -- in
7:15 AM 6:02 PM
Waning Crescent, 4% visible
Pressure 29.97 in
Visibility 10.0 miles
Clouds Scattered Clouds 1400 ft
Scattered Clouds 4800 ft
Dew Point 48 °F
Humidity 90%
Rainfall 0.12 in
Snow Depth Not available.
UV 0 out of 12
Pollen .10 out of 12
PM2.5 Good
Flu Activity Sporadic
SPECI KGFL 212202Z AUTO 01004KT 10SM SCT014 SCT048 09/08 A2997 RMK AO2 T00940078

More Conditions Fewer Conditions

Pressure 29.97 in
Visibility 10.0 miles
Clouds Scattered Clouds 1400 ft
Scattered Clouds 4800 ft
Dew Point 48 °F
Humidity 90%
Rainfall 0.12 in
Snow Depth Not available.
UV 0 out of 12
Pollen .10 out of 12
PM2.5 Good
Flu Activity Sporadic
SPECI KGFL 212202Z AUTO 01004KT 10SM SCT014 SCT048 09/08 A2997 RMK AO2 T00940078

More Conditions Fewer Conditions

10-Day Weather Forecast

Almanac

Astronomy

Oct. 21, 2014 Rise Set
Actual Time 7:15 AM EDT 6:02 PM EDT
Civil Twilight 6:46 AM EDT 6:31 PM EDT
Nautical Twilight 6:13 AM EDT 7:04 PM EDT
Astronomical Twilight 5:40 AM EDT 7:37 PM EDT
Moon 4:53 AM EDT 4:57 PM EDT
Length of Visible Light 11h 44m
Length of Day
10h 46m
Tomorrow will be 2m 47s shorter.
Waning Crescent, 4% of the Moon is Illuminated
Today
Waning Crescent
Oct 23
New
Oct 30
First Quarter
Nov 6
Full
Nov 14
Last Quarter

Today's Extremes

State Highs State Lows

Community

WunderPhotos

Upload Photos

1,763,798 photos uploaded!

Nearby

Air Quality

  Air Quality AQ Index Pollutant
Yesterday Good
OZONE
Yesterday Good
PM2.5
Current Good
PM2.5
Tuesday Good
PM2.5
Wednesday Good
PM2.5

Snow Depth

Station Depth Elevation
No new snow has been reported.

Earthquake Activity

City Distance Mag. Time & Date
No recent earthquake activity has been reported nearby.
Minimum magnitude displayed is 2.5.

Coastal Water Temperatures

Place Temperature
No Stations Reporting

Nearby Weather Stations